Time;durP1;ratioP1;P1;durP2;ratioP2;P2;SDS_P1;SDS_P2;PMS_P1;PMS_P2;Temp;Humidity;BMP_temperature;BMP_pressure;BME280_temperature;BME280_humidity;BME280_pressure;Samples;Min_cycle;Max_cycle;Signal;HPM_P1;HPM_P2
2023/12/11 00:00:23;;;;;;;29.95;5.22;;;15.00;99.90;;;;;;5027525;28;20042;-75
2023/12/11 00:02:49;;;;;;;31.85;5.63;;;14.90;99.90;;;;;;5021654;28;20060;-77
2023/12/11 00:05:15;;;;;;;24.83;4.90;;;14.90;99.90;;;;;;5018597;28;20037;-76
2023/12/11 00:07:41;;;;;;;27.60;5.28;;;14.30;99.90;;;;;;5025112;28;20046;-73
2023/12/11 00:10:07;;;;;;;27.02;5.32;;;14.20;99.90;;;;;;5030348;28;20044;-77
2023/12/11 00:12:32;;;;;;;31.45;5.18;;;14.60;99.90;;;;;;5020078;28;20030;-74
2023/12/11 00:14:59;;;;;;;34.03;5.45;;;14.20;99.90;;;;;;5020974;28;20044;-73
2023/12/11 00:17:27;;;;;;;28.80;6.00;;;14.30;99.90;;;;;;5024020;28;20422;-73
2023/12/11 00:19:53;;;;;;;28.88;5.53;;;12.30;99.90;;;;;;5028848;28;20049;-76
2023/12/11 00:22:18;;;;;;;24.98;5.63;;;12.50;99.90;;;;;;5023068;28;20052;-76
2023/12/11 00:24:44;;;;;;;36.00;6.13;;;14.00;99.90;;;;;;5012576;28;20127;-76
2023/12/11 00:27:11;;;;;;;33.17;6.03;;;12.80;99.90;;;;;;5023296;28;20038;-77
2023/12/11 00:29:38;;;;;;;28.40;6.05;;;12.30;99.90;;;;;;5027699;28;20729;-77
2023/12/11 00:32:04;;;;;;;34.33;6.50;;;12.80;99.90;;;;;;5004449;28;20128;-73
2023/12/11 00:34:30;;;;;;;37.15;6.97;;;14.30;99.90;;;;;;5028255;28;20086;-76
2023/12/11 00:36:56;;;;;;;31.98;6.18;;;13.50;99.90;;;;;;5022108;28;20096;-78
2023/12/11 00:39:22;;;;;;;42.08;7.38;;;12.20;99.90;;;;;;5008718;28;20069;-77
2023/12/11 00:41:48;;;;;;;41.00;6.78;;;14.20;99.90;;;;;;4998532;28;20034;-75
2023/12/11 00:44:14;;;;;;;32.90;6.03;;;13.40;99.90;;;;;;5004488;28;20513;-75
2023/12/11 00:46:40;;;;;;;39.53;7.88;;;14.00;99.90;;;;;;5027337;28;20041;-77
2023/12/11 00:49:06;;;;;;;35.67;7.07;;;14.00;99.90;;;;;;5018668;28;20098;-75
2023/12/11 00:51:31;;;;;;;34.38;6.97;;;13.50;99.90;;;;;;5029425;28;20088;-75
2023/12/11 00:53:57;;;;;;;42.53;7.88;;;13.10;99.90;;;;;;5032917;28;20043;-76
2023/12/11 00:56:23;;;;;;;34.25;7.15;;;12.00;99.90;;;;;;5016614;28;20052;-74
2023/12/11 00:58:48;;;;;;;35.28;6.85;;;12.20;99.90;;;;;;4997589;28;20533;-78
2023/12/11 01:01:14;;;;;;;39.60;7.65;;;13.80;99.90;;;;;;5029650;28;20040;-76
2023/12/11 01:03:40;;;;;;;40.88;8.38;;;14.20;99.90;;;;;;4992376;28;20026;-76
2023/12/11 01:06:06;;;;;;;41.15;7.85;;;13.10;99.90;;;;;;5009217;28;20045;-77
2023/12/11 01:08:33;;;;;;;40.10;8.25;;;11.90;99.90;;;;;;5034053;28;20068;-78
2023/12/11 01:10:59;;;;;;;42.72;7.88;;;14.20;99.90;;;;;;5029169;28;20049;-76
2023/12/11 01:13:25;;;;;;;45.20;8.23;;;12.30;99.90;;;;;;5032661;28;20122;-78
2023/12/11 01:15:51;;;;;;;35.05;6.88;;;14.20;99.90;;;;;;5030919;28;20051;-74
2023/12/11 01:18:16;;;;;;;42.00;8.30;;;13.90;99.90;;;;;;5013949;28;20385;-76
2023/12/11 01:20:42;;;;;;;42.05;7.60;;;14.10;99.90;;;;;;4982415;28;20065;-74
2023/12/11 01:23:08;;;;;;;42.65;8.48;;;12.20;99.90;;;;;;5014980;28;20048;-78
2023/12/11 01:25:34;;;;;;;35.17;7.45;;;12.20;99.90;;;;;;5021428;28;20090;-76
2023/12/11 01:28:00;;;;;;;40.90;8.63;;;11.80;99.90;;;;;;5022756;28;20050;-78
2023/12/11 01:30:26;;;;;;;35.65;7.97;;;12.00;99.90;;;;;;5001891;28;20091;-77
2023/12/11 01:32:51;;;;;;;43.90;8.30;;;14.10;99.90;;;;;;5028162;28;20585;-80
2023/12/11 01:35:17;;;;;;;38.75;7.88;;;14.00;99.90;;;;;;5014849;28;20038;-76
2023/12/11 01:37:43;;;;;;;36.80;6.75;;;12.30;99.90;;;;;;5001158;28;20111;-76
2023/12/11 01:40:10;;;;;;;35.03;7.80;;;13.40;99.90;;;;;;4967924;28;20037;-77
2023/12/11 01:42:36;;;;;;;35.65;6.63;;;14.00;99.90;;;;;;5023626;28;20418;-76
2023/12/11 01:45:02;;;;;;;45.85;7.95;;;12.50;99.90;;;;;;4998906;28;20040;-81
2023/12/11 01:47:28;;;;;;;36.75;7.57;;;14.40;99.90;;;;;;4997828;28;20041;-79
2023/12/11 01:49:53;;;;;;;37.15;7.28;;;14.40;99.90;;;;;;5019551;28;20158;-76
2023/12/11 01:52:20;;;;;;;43.33;7.65;;;14.10;99.90;;;;;;5005032;28;20050;-76
2023/12/11 01:54:47;;;;;;;31.88;7.45;;;12.00;99.90;;;;;;5017655;28;20044;-78
2023/12/11 01:57:13;;;;;;;42.72;8.45;;;14.00;99.90;;;;;;5040769;28;20043;-78
2023/12/11 01:59:39;;;;;;;43.03;8.88;;;13.80;99.90;;;;;;5035617;28;20080;-76
2023/12/11 02:02:05;;;;;;;29.75;6.70;;;12.10;99.90;;;;;;5042144;28;20072;-79
2023/12/11 02:04:31;;;;;;;31.95;6.93;;;11.70;99.90;;;;;;5025263;28;20041;-80
2023/12/11 02:06:57;;;;;;;38.42;7.28;;;11.90;99.90;;;;;;5014156;28;20039;-75
2023/12/11 02:09:26;;;;;;;36.42;6.70;;;12.30;99.90;;;;;;5041295;28;20525;-77
2023/12/11 02:11:52;;;;;;;40.35;7.30;;;14.30;99.90;;;;;;5038678;28;20086;-79
2023/12/11 02:14:18;;;;;;;39.17;7.35;;;14.20;99.90;;;;;;5024088;28;20448;-80
2023/12/11 02:16:43;;;;;;;36.92;6.82;;;13.00;99.90;;;;;;5031082;28;20050;-76
2023/12/11 02:19:09;;;;;;;37.47;7.25;;;13.90;99.90;;;;;;5013805;28;20052;-79
2023/12/11 02:21:35;;;;;;;49.50;8.32;;;12.10;99.90;;;;;;5017121;28;20068;-75
2023/12/11 02:24:16;;;;;;;40.72;8.77;;;12.20;99.90;;;;;;4997674;28;20685;-78
2023/12/11 02:26:42;;;;;;;44.50;7.72;;;13.40;99.90;;;;;;5028453;28;20073;-75
2023/12/11 02:29:08;;;;;;;48.95;9.00;;;12.10;99.90;;;;;;5019762;28;20048;-76
2023/12/11 02:31:33;;;;;;;41.08;8.00;;;14.00;99.90;;;;;;5031247;28;20056;-76
2023/12/11 02:33:59;;;;;;;46.67;7.93;;;12.10;99.90;;;;;;5024060;28;20045;-77
2023/12/11 02:36:25;;;;;;;43.05;7.30;;;14.20;99.90;;;;;;5021253;28;20041;-78
2023/12/11 02:38:51;;;;;;;55.05;8.30;;;14.40;99.90;;;;;;4995930;28;20041;-78
2023/12/11 02:41:16;;;;;;;42.78;7.78;;;12.90;99.90;;;;;;5037835;28;20116;-74
2023/12/11 02:43:42;;;;;;;34.13;7.20;;;13.00;99.90;;;;;;5019893;28;20030;-74
2023/12/11 02:46:08;;;;;;;44.75;7.95;;;13.20;99.90;;;;;;5009563;28;20436;-76
2023/12/11 02:48:33;;;;;;;46.90;8.38;;;14.70;99.90;;;;;;5023802;28;20069;-76
2023/12/11 02:50:59;;;;;;;48.38;8.82;;;12.10;99.90;;;;;;5028520;28;20804;-80
2023/12/11 02:53:25;;;;;;;39.42;7.18;;;12.10;99.90;;;;;;5036658;28;20409;-75
2023/12/11 02:55:50;;;;;;;41.17;8.63;;;14.70;99.90;;;;;;5015382;28;20073;-74
2023/12/11 02:58:16;;;;;;;40.55;7.25;;;14.30;99.90;;;;;;5018975;28;20817;-76
2023/12/11 03:00:42;;;;;;;37.72;7.30;;;14.30;99.90;;;;;;5016984;28;20041;-78
2023/12/11 03:03:08;;;;;;;47.97;9.43;;;14.10;99.90;;;;;;5002166;28;20037;-76
2023/12/11 03:05:34;;;;;;;41.17;8.40;;;12.30;99.90;;;;;;5020231;28;20091;-77
2023/12/11 03:08:04;;;;;;;46.08;8.90;;;12.80;99.90;;;;;;5014051;28;20565;-77
2023/12/11 03:10:33;;;;;;;37.35;7.47;;;12.30;99.90;;;;;;5017569;28;20474;-80
2023/12/11 03:12:59;;;;;;;45.03;8.73;;;13.60;99.90;;;;;;5013745;28;20139;-79
2023/12/11 03:15:25;;;;;;;46.42;8.90;;;12.40;99.90;;;;;;5022959;28;20129;-76
2023/12/11 03:17:50;;;;;;;35.58;7.68;;;14.30;99.90;;;;;;5046315;28;20036;-79
2023/12/11 03:20:16;;;;;;;51.63;8.13;;;14.40;99.90;;;;;;5036814;28;20112;-77
2023/12/11 03:22:42;;;;;;;45.90;8.23;;;12.10;99.90;;;;;;5023489;28;20036;-75
2023/12/11 03:25:08;;;;;;;38.55;7.05;;;13.40;99.90;;;;;;5013697;28;20048;-79
2023/12/11 03:27:34;;;;;;;46.35;7.93;;;12.30;99.90;;;;;;5028071;28;20440;-76
2023/12/11 03:29:59;;;;;;;41.13;8.30;;;12.10;99.90;;;;;;5009645;28;20055;-76
2023/12/11 03:32:25;;;;;;;46.47;9.18;;;14.30;99.90;;;;;;5029670;28;20041;-75
2023/12/11 03:34:51;;;;;;;46.45;9.00;;;14.50;99.90;;;;;;5030265;28;20048;-76
2023/12/11 03:37:17;;;;;;;43.10;8.50;;;14.30;99.90;;;;;;5017947;28;20037;-78
2023/12/11 03:39:42;;;;;;;45.47;8.63;;;12.00;99.90;;;;;;5040450;28;20103;-78
2023/12/11 03:42:09;;;;;;;43.88;8.65;;;12.50;99.90;;;;;;4980225;28;20029;-77
2023/12/11 03:44:35;;;;;;;46.92;9.90;;;14.30;99.90;;;;;;5046041;28;20099;-76
2023/12/11 03:47:00;;;;;;;38.53;8.48;;;12.60;99.90;;;;;;5034051;28;20040;-76
2023/12/11 03:49:27;;;;;;;47.42;8.80;;;13.60;99.90;;;;;;5013367;28;20401;-76
2023/12/11 03:51:53;;;;;;;42.38;8.60;;;12.70;99.90;;;;;;5022537;28;20445;-75
2023/12/11 03:54:19;;;;;;;47.53;8.65;;;13.90;99.90;;;;;;5026435;28;20041;-76
2023/12/11 03:56:45;;;;;;;46.60;7.88;;;13.20;99.90;;;;;;5007880;28;20041;-74
2023/12/11 03:59:13;;;;;;;55.63;10.13;;;13.60;99.90;;;;;;5042558;28;20056;-75
2023/12/11 04:01:39;;;;;;;51.65;9.50;;;13.60;99.90;;;;;;5018329;28;20032;-77
2023/12/11 04:04:05;;;;;;;47.17;8.48;;;12.20;99.90;;;;;;5025994;28;20052;-78
2023/12/11 04:06:31;;;;;;;45.58;8.90;;;12.30;99.90;;;;;;5028528;28;20040;-75
2023/12/11 04:08:57;;;;;;;44.10;8.68;;;14.60;99.90;;;;;;5031192;28;20480;-73
2023/12/11 04:11:23;;;;;;;51.40;9.25;;;14.70;99.90;;;;;;5029816;28;20037;-78
2023/12/11 04:13:48;;;;;;;44.28;8.88;;;12.60;99.90;;;;;;4992640;28;20067;-76
2023/12/11 04:16:14;;;;;;;41.42;7.60;;;12.70;99.90;;;;;;5010199;28;20045;-75
2023/12/11 04:18:41;;;;;;;50.65;9.15;;;12.70;99.90;;;;;;5036583;28;20041;-74
2023/12/11 04:21:06;;;;;;;42.92;8.80;;;14.80;99.90;;;;;;5023973;28;20040;-77
2023/12/11 04:23:32;;;;;;;43.35;7.65;;;14.80;99.90;;;;;;5029899;28;20041;-76
2023/12/11 04:25:59;;;;;;;46.17;7.88;;;12.70;99.90;;;;;;5018866;28;20037;-78
2023/12/11 04:28:28;;;;;;;50.05;8.10;;;12.40;99.90;;;;;;5023950;28;20413;-76
2023/12/11 04:30:54;;;;;;;48.97;9.18;;;12.30;99.90;;;;;;5027857;28;20500;-77
2023/12/11 04:33:20;;;;;;;37.47;8.57;;;14.10;99.90;;;;;;5029568;28;20350;-81
2023/12/11 04:35:46;;;;;;;42.95;8.05;;;13.50;99.90;;;;;;5003761;28;20472;-76
2023/12/11 04:38:12;;;;;;;42.67;8.13;;;14.90;99.90;;;;;;5016259;28;20038;-77
2023/12/11 04:40:38;;;;;;;46.08;9.32;;;14.80;99.90;;;;;;5021015;28;20037;-78
2023/12/11 04:43:04;;;;;;;49.20;9.40;;;12.60;99.90;;;;;;5042210;28;20040;-79
2023/12/11 04:45:30;;;;;;;48.00;8.30;;;12.60;99.90;;;;;;5053063;28;20087;-79
2023/12/11 04:47:56;;;;;;;42.92;8.15;;;14.40;99.90;;;;;;5020091;28;20048;-77
2023/12/11 04:50:22;;;;;;;39.38;7.80;;;13.70;99.90;;;;;;5001416;28;20052;-79
2023/12/11 04:52:48;;;;;;;48.58;8.30;;;12.30;99.90;;;;;;5025021;28;20040;-75
2023/12/11 04:55:14;;;;;;;45.38;7.78;;;13.70;99.90;;;;;;5044668;28;20045;-79
2023/12/11 04:57:40;;;;;;;40.58;9.18;;;14.80;99.90;;;;;;5021443;28;20338;-78
2023/12/11 05:00:07;;;;;;;45.22;8.27;;;13.30;99.90;;;;;;5000882;28;20099;-75
2023/12/11 05:02:33;;;;;;;40.33;7.10;;;13.90;99.90;;;;;;5003271;28;20082;-79
2023/12/11 05:04:58;;;;;;;45.95;8.30;;;12.70;99.90;;;;;;5037870;28;20127;-75
2023/12/11 05:07:24;;;;;;;41.72;7.03;;;14.50;99.90;;;;;;5026715;28;20106;-77
2023/12/11 05:09:50;;;;;;;41.00;6.82;;;12.20;99.90;;;;;;5036156;28;20045;-81
2023/12/11 05:12:16;;;;;;;42.83;7.78;;;12.40;99.90;;;;;;5035268;28;20115;-78
2023/12/11 05:14:42;;;;;;;48.50;8.35;;;14.90;99.90;;;;;;5000559;28;20170;-76
2023/12/11 05:17:08;;;;;;;39.95;7.45;;;14.30;99.90;;;;;;5032813;28;20044;-77
2023/12/11 05:19:35;;;;;;;36.97;7.35;;;14.20;99.90;;;;;;5022041;28;20037;-79
2023/12/11 05:22:01;;;;;;;35.28;7.30;;;14.70;99.90;;;;;;5034129;28;20077;-77
2023/12/11 05:24:27;;;;;;;36.42;6.40;;;13.70;99.90;;;;;;5037322;28;20527;-77
2023/12/11 05:26:56;;;;;;;49.35;6.97;;;13.10;99.90;;;;;;5041939;28;20075;-78
2023/12/11 05:29:22;;;;;;;35.50;7.28;;;14.70;99.90;;;;;;5037129;28;20047;-76
2023/12/11 05:31:48;;;;;;;38.50;7.10;;;12.80;99.90;;;;;;5033186;28;20509;-75
2023/12/11 05:34:14;;;;;;;39.33;6.65;;;12.60;99.90;;;;;;5020994;28;20051;-76
2023/12/11 05:36:40;;;;;;;38.95;6.68;;;12.00;99.90;;;;;;5028144;28;20041;-75
2023/12/11 05:39:06;;;;;;;34.63;6.38;;;13.60;99.90;;;;;;4985225;28;20087;-74
2023/12/11 05:41:33;;;;;;;42.05;7.03;;;12.20;99.90;;;;;;5048855;28;20033;-78
2023/12/11 05:43:59;;;;;;;39.22;6.82;;;12.40;99.90;;;;;;5029717;28;20504;-75
2023/12/11 05:46:25;;;;;;;39.38;7.10;;;14.90;99.90;;;;;;5015487;28;20124;-75
2023/12/11 05:48:50;;;;;;;35.67;6.35;;;12.40;99.90;;;;;;5035765;28;20046;-78
2023/12/11 05:51:16;;;;;;;35.30;6.57;;;12.00;99.90;;;;;;5033718;28;20061;-74
2023/12/11 05:53:42;;;;;;;35.53;7.15;;;12.00;99.90;;;;;;5034649;28;20041;-77
2023/12/11 05:56:08;;;;;;;33.13;6.40;;;13.50;99.90;;;;;;5036340;28;20126;-76
2023/12/11 05:58:34;;;;;;;41.58;7.18;;;12.80;99.90;;;;;;5018907;28;20063;-77
2023/12/11 06:00:59;;;;;;;31.95;6.70;;;14.70;99.90;;;;;;5002418;28;20037;-80
2023/12/11 06:03:25;;;;;;;38.58;7.18;;;14.90;99.90;;;;;;5034417;28;20055;-78
2023/12/11 06:05:57;;;;;;;45.05;7.88;;;14.80;99.90;;;;;;5022103;28;20388;-74
2023/12/11 06:08:26;;;;;;;33.90;7.82;;;14.80;99.90;;;;;;5004778;28;20127;-78
2023/12/11 06:10:52;;;;;;;35.20;7.05;;;12.80;99.90;;;;;;5032773;28;20033;-74
2023/12/11 06:13:18;;;;;;;32.67;6.35;;;13.40;99.90;;;;;;5017691;28;20401;-74
2023/12/11 06:15:44;;;;;;;35.90;6.90;;;12.50;99.90;;;;;;5031948;28;20439;-76
2023/12/11 06:18:10;;;;;;;33.35;7.10;;;14.30;99.90;;;;;;5001300;28;20041;-77
2023/12/11 06:20:35;;;;;;;41.92;7.43;;;14.40;99.90;;;;;;5046503;28;20145;-76
2023/12/11 06:23:01;;;;;;;34.42;6.50;;;12.60;99.90;;;;;;5016894;28;20668;-79
2023/12/11 06:25:27;;;;;;;31.23;6.80;;;12.60;99.90;;;;;;5024883;28;20120;-78
2023/12/11 06:27:53;;;;;;;28.20;5.95;;;12.90;99.90;;;;;;5039471;28;20037;-77
2023/12/11 06:30:19;;;;;;;32.22;6.97;;;13.90;99.90;;;;;;5029564;28;20036;-78
2023/12/11 06:32:45;;;;;;;37.22;6.70;;;14.10;99.90;;;;;;5020826;28;20045;-79
2023/12/11 06:35:11;;;;;;;31.52;6.90;;;14.60;99.90;;;;;;5015085;28;20194;-78
2023/12/11 06:37:37;;;;;;;28.98;6.20;;;14.60;99.90;;;;;;5012580;28;20436;-67
2023/12/11 06:40:03;;;;;;;40.30;7.20;;;14.50;99.90;;;;;;5027033;28;20133;-75
2023/12/11 06:42:34;;;;;;;35.03;6.72;;;14.30;99.90;;;;;;4999531;28;20045;-73
2023/12/11 06:45:00;;;;;;;31.58;6.07;;;14.40;99.90;;;;;;5026108;28;20562;-78
2023/12/11 06:47:26;;;;;;;28.70;6.43;;;14.80;99.90;;;;;;5009699;28;20123;-74
2023/12/11 06:49:52;;;;;;;36.08;6.90;;;14.50;99.90;;;;;;5014945;28;20485;-75
2023/12/11 06:52:18;;;;;;;30.60;5.90;;;14.20;99.90;;;;;;5011834;28;20056;-80
2023/12/11 06:54:44;;;;;;;28.77;5.55;;;13.90;99.90;;;;;;5008919;28;20045;-76
2023/12/11 06:57:09;;;;;;;34.95;7.05;;;14.50;99.90;;;;;;5018193;28;20628;-78
2023/12/11 06:59:35;;;;;;;38.78;6.55;;;14.20;99.90;;;;;;5003116;28;20056;-73
2023/12/11 07:02:02;;;;;;;31.75;6.35;;;12.60;99.90;;;;;;5011997;28;20037;-76
2023/12/11 07:04:28;;;;;;;27.00;5.38;;;14.10;99.90;;;;;;5016065;28;20044;-76
2023/12/11 07:06:53;;;;;;;37.15;6.55;;;13.30;99.90;;;;;;5032578;28;20048;-77
2023/12/11 07:09:19;;;;;;;27.50;5.85;;;13.40;99.90;;;;;;5017428;28;20036;-79
2023/12/11 07:11:44;;;;;;;31.42;5.80;;;14.70;99.90;;;;;;5032960;28;20040;-80
2023/12/11 07:14:10;;;;;;;28.77;5.50;;;12.30;99.90;;;;;;5035143;28;20041;-74
2023/12/11 07:16:36;;;;;;;30.95;5.57;;;12.10;99.90;;;;;;5039160;28;20036;-74
2023/12/11 07:19:05;;;;;;;24.85;5.68;;;14.70;99.90;;;;;;5029026;28;20045;-74
2023/12/11 07:21:30;;;;;;;34.70;6.93;;;14.10;99.90;;;;;;5017164;28;20420;-76
2023/12/11 07:23:56;;;;;;;29.20;5.90;;;11.90;99.90;;;;;;5033446;28;20044;-78
2023/12/11 07:26:22;;;;;;;30.42;5.63;;;14.60;99.90;;;;;;5000062;28;20060;-73
2023/12/11 07:28:48;;;;;;;34.38;5.70;;;13.30;99.90;;;;;;5038375;28;20044;-76
2023/12/11 07:31:13;;;;;;;30.92;6.10;;;13.40;99.90;;;;;;5033091;28;20049;-79
2023/12/11 07:33:39;;;;;;;25.95;5.30;;;13.20;99.90;;;;;;5016943;28;20495;-77
2023/12/11 07:36:05;;;;;;;34.00;6.82;;;11.80;99.90;;;;;;5033241;28;20044;-78
2023/12/11 07:38:31;;;;;;;28.00;5.07;;;13.30;99.90;;;;;;5033753;28;20400;-76
2023/12/11 07:40:57;;;;;;;23.92;5.20;;;14.20;99.90;;;;;;5008156;28;20041;-76
2023/12/11 07:43:23;;;;;;;21.42;4.40;;;13.10;99.90;;;;;;5040251;28;20025;-79
2023/12/11 07:45:49;;;;;;;20.83;5.15;;;12.40;99.90;;;;;;5036086;28;20507;-76
2023/12/11 07:48:15;;;;;;;20.50;4.30;;;14.70;99.90;;;;;;5038175;28;20125;-75
2023/12/11 07:50:40;;;;;;;24.00;5.32;;;12.30;99.90;;;;;;5037682;28;20060;-75
2023/12/11 07:53:06;;;;;;;17.73;4.75;;;14.50;99.90;;;;;;5032801;28;20045;-83
2023/12/11 07:55:33;;;;;;;20.90;5.47;;;13.40;99.90;;;;;;5016374;28;20500;-79
2023/12/11 07:57:59;;;;;;;22.23;4.72;;;13.70;99.90;;;;;;5025652;28;20057;-79
2023/12/11 08:00:25;;;;;;;21.42;4.30;;;12.00;99.90;;;;;;5020589;28;20041;-75
2023/12/11 08:02:51;;;;;;;18.17;4.75;;;12.10;99.90;;;;;;5023121;28;20385;-74
2023/12/11 08:05:16;;;;;;;21.25;4.28;;;14.30;99.90;;;;;;5000295;28;20053;-77
2023/12/11 08:07:43;;;;;;;24.45;5.43;;;14.10;99.90;;;;;;5030073;28;20036;-77
2023/12/11 08:10:09;;;;;;;21.02;4.90;;;14.30;99.90;;;;;;5046998;28;20132;-75
2023/12/11 08:12:35;;;;;;;19.77;3.97;;;13.10;99.90;;;;;;5041955;28;20163;-79
2023/12/11 08:15:03;;;;;;;18.85;4.03;;;14.70;99.90;;;;;;5031968;28;20061;-80
2023/12/11 08:17:29;;;;;;;17.65;4.13;;;12.00;99.90;;;;;;5011452;28;20405;-79
2023/12/11 08:19:54;;;;;;;20.13;4.85;;;11.90;99.90;;;;;;5023709;28;20045;-75
2023/12/11 08:22:20;;;;;;;15.10;4.03;;;12.60;99.90;;;;;;5037120;28;20052;-78
2023/12/11 08:24:47;;;;;;;21.38;3.92;;;12.20;99.90;;;;;;5019812;28;20039;-75
2023/12/11 08:27:13;;;;;;;14.68;4.07;;;14.80;99.90;;;;;;5019503;28;20040;-79
2023/12/11 08:29:38;;;;;;;14.95;3.13;;;14.70;99.90;;;;;;5036807;28;20036;-76
2023/12/11 08:32:04;;;;;;;18.98;4.45;;;12.40;99.90;;;;;;5043469;28;20040;-74
2023/12/11 08:34:30;;;;;;;18.58;3.97;;;13.80;99.90;;;;;;5009125;28;20099;-75
2023/12/11 08:36:56;;;;;;;11.75;3.08;;;12.60;99.90;;;;;;5019725;28;20048;-82
2023/12/11 08:39:22;;;;;;;21.38;4.10;;;13.40;99.90;;;;;;5019078;28;20500;-76
2023/12/11 08:41:49;;;;;;;16.98;4.05;;;12.00;99.90;;;;;;5037289;28;20037;-78
2023/12/11 08:44:15;;;;;;;15.35;4.40;;;14.80;99.90;;;;;;5043398;28;20044;-77
2023/12/11 08:46:41;;;;;;;23.30;4.38;;;14.40;99.90;;;;;;5036272;28;20382;-79
2023/12/11 08:49:07;;;;;;;15.43;3.80;;;14.50;99.90;;;;;;5036021;28;20079;-79
2023/12/11 08:51:34;;;;;;;16.02;4.13;;;13.80;99.90;;;;;;5035684;28;20653;-77
2023/12/11 08:54:00;;;;;;;18.98;4.05;;;13.60;99.90;;;;;;5038159;28;20040;-82
2023/12/11 08:56:26;;;;;;;14.35;3.88;;;12.10;99.90;;;;;;5023471;28;20051;-76
2023/12/11 08:58:52;;;;;;;14.35;3.80;;;12.10;99.90;;;;;;5035794;28;20401;-80
2023/12/11 09:01:18;;;;;;;19.48;4.50;;;12.10;99.90;;;;;;5035734;28;20072;-77
2023/12/11 09:03:44;;;;;;;17.75;5.22;;;14.70;99.90;;;;;;5041659;28;20041;-79
2023/12/11 09:06:12;;;;;;;15.77;4.15;;;14.90;99.90;;;;;;5014190;28;20037;-80
2023/12/11 09:08:38;;;;;;;12.63;3.90;;;14.30;99.90;;;;;;5019441;28;20052;-79
2023/12/11 09:11:03;;;;;;;18.45;4.28;;;14.70;99.90;;;;;;5019215;28;20477;-77
2023/12/11 09:13:29;;;;;;;17.88;5.22;;;13.00;99.90;;;;;;5020708;28;20067;-78
2023/12/11 09:15:55;;;;;;;13.95;5.10;;;13.30;99.90;;;;;;5029758;28;20094;-75
2023/12/11 09:18:20;;;;;;;16.98;4.15;;;14.60;99.90;;;;;;5038047;28;20175;-79
2023/12/11 09:20:46;;;;;;;19.67;5.53;;;13.10;99.90;;;;;;5027864;28;20039;-79
2023/12/11 09:23:12;;;;;;;19.55;5.32;;;12.30;99.90;;;;;;5035571;28;20041;-79
2023/12/11 09:25:37;;;;;;;20.35;5.32;;;13.20;99.90;;;;;;5033604;28;20040;-79
2023/12/11 09:28:04;;;;;;;19.50;5.15;;;12.70;99.90;;;;;;5023619;28;20049;-78
2023/12/11 09:30:30;;;;;;;18.10;4.80;;;14.60;99.90;;;;;;5035002;28;20465;-77
2023/12/11 09:32:56;;;;;;;15.90;5.13;;;12.70;99.90;;;;;;5018766;28;20040;-78
2023/12/11 09:35:22;;;;;;;13.25;5.32;;;14.40;99.90;;;;;;5026838;28;20481;-79
2023/12/11 09:37:48;;;;;;;16.00;4.93;;;15.00;99.90;;;;;;5031161;28;20136;-78
2023/12/11 09:40:13;;;;;;;19.75;5.50;;;12.60;99.90;;;;;;5018601;28;20044;-79
2023/12/11 09:42:42;;;;;;;21.15;4.75;;;13.80;99.90;;;;;;5018059;28;20045;-81
2023/12/11 09:45:09;;;;;;;19.02;5.40;;;14.80;99.90;;;;;;5019909;28;20044;-79
2023/12/11 09:47:42;;;;;;;22.95;5.50;;;12.40;99.90;;;;;;5024551;28;20400;-76
2023/12/11 09:50:09;;;;;;;19.90;4.57;;;14.60;99.90;;;;;;5035320;28;20492;-78
2023/12/11 09:52:40;;;;;;;24.52;5.80;;;14.80;99.90;;;;;;5034539;28;20178;-79
2023/12/11 09:55:06;;;;;;;20.85;5.90;;;12.70;99.90;;;;;;5021809;28;20056;-78
2023/12/11 09:57:34;;;;;;;18.08;5.07;;;13.50;99.90;;;;;;5025873;28;20119;-76
2023/12/11 10:00:00;;;;;;;22.40;6.30;;;12.50;99.90;;;;;;5019003;28;20559;-79
2023/12/11 10:02:27;;;;;;;21.08;6.47;;;12.90;99.90;;;;;;5018281;28;20080;-75
2023/12/11 10:05:02;;;;;;;13.90;5.35;;;15.30;99.90;;;;;;5018430;28;20052;-80
2023/12/11 10:07:28;;;;;;;13.60;5.00;;;14.60;99.90;;;;;;5040955;28;20076;-77
2023/12/11 10:09:54;;;;;;;22.55;5.97;;;15.40;99.90;;;;;;5029755;28;20063;-80
2023/12/11 10:12:20;;;;;;;19.75;5.90;;;12.90;99.90;;;;;;5018286;28;20110;-76
2023/12/11 10:15:18;;;;;;;27.23;6.10;;;14.50;99.90;;;;;;5017882;28;20056;-81
2023/12/11 10:17:43;;;;;;;20.27;5.10;;;15.10;99.90;;;;;;5050334;28;20044;-79
2023/12/11 10:20:18;;;;;;;18.83;4.93;;;13.90;99.90;;;;;;5039712;28;20546;-78
2023/12/11 10:22:44;;;;;;;17.55;4.20;;;13.10;99.90;;;;;;5001344;28;20041;-80
2023/12/11 10:25:10;;;;;;;15.88;3.17;;;12.70;99.90;;;;;;5017642;28;20033;-82
2023/12/11 10:27:35;;;;;;;22.13;3.65;;;14.20;99.90;;;;;;5043602;28;20129;-80
2023/12/11 10:30:12;;;;;;;18.98;4.22;;;13.90;99.90;;;;;;5004038;28;20044;-78
2023/12/11 10:32:41;;;;;;;17.25;3.10;;;15.20;99.90;;;;;;5028937;28;20485;-79
2023/12/11 10:35:08;;;;;;;17.50;3.10;;;13.60;99.90;;;;;;5033717;28;20056;-80
2023/12/11 10:37:34;;;;;;;16.70;2.60;;;14.90;99.90;;;;;;5019696;28;20076;-77
2023/12/11 10:40:01;;;;;;;12.10;2.88;;;15.00;99.90;;;;;;5018071;28;20126;-79
2023/12/11 10:42:27;;;;;;;12.75;2.85;;;15.10;99.90;;;;;;5043746;28;20040;-80
2023/12/11 10:44:54;;;;;;;11.93;2.33;;;13.50;99.90;;;;;;5023836;28;20402;-78
2023/12/11 10:47:20;;;;;;;15.35;2.83;;;12.90;99.90;;;;;;5023391;28;20033;-78
2023/12/11 10:49:46;;;;;;;15.27;3.40;;;12.80;99.90;;;;;;5033756;28;20052;-78
2023/12/11 10:52:12;;;;;;;15.40;3.83;;;13.30;99.90;;;;;;5020890;28;20052;-78
2023/12/11 10:54:38;;;;;;;23.75;3.90;;;14.10;99.90;;;;;;5038412;28;20484;-78
2023/12/11 10:57:08;;;;;;;20.75;4.80;;;12.70;99.90;;;;;;5033451;28;20053;-74
2023/12/11 10:59:35;;;;;;;17.35;4.18;;;12.70;99.90;;;;;;5033257;28;20040;-79
2023/12/11 11:02:02;;;;;;;19.15;3.72;;;13.30;99.90;;;;;;5033544;28;20041;-76
2023/12/11 11:04:32;;;;;;;20.65;4.35;;;13.60;99.90;;;;;;5013395;28;20029;-78
2023/12/11 11:07:16;;;;;;;16.15;4.20;;;14.90;99.90;;;;;;5033415;28;20045;-79
2023/12/11 11:10:01;;;;;;;19.65;3.80;;;14.50;99.90;;;;;;5016904;28;20043;-78
2023/12/11 11:12:41;;;;;;;16.75;3.85;;;14.20;99.90;;;;;;5034822;28;20123;-78
2023/12/11 11:15:09;;;;;;;24.17;4.78;;;15.10;99.90;;;;;;5045746;28;20450;-80
2023/12/11 11:17:58;;;;;;;20.80;4.25;;;14.70;99.90;;;;;;5016790;28;20040;-79
2023/12/11 11:20:25;;;;;;;21.27;3.72;;;15.00;99.90;;;;;;5016629;28;20083;-78
2023/12/11 11:22:51;;;;;;;21.70;4.82;;;13.10;99.90;;;;;;5033413;28;20366;-77
2023/12/11 11:25:29;;;;;;;22.02;4.72;;;14.60;99.90;;;;;;5018103;28;20075;-80
2023/12/11 11:27:55;;;;;;;23.33;4.30;;;12.90;99.90;;;;;;5020740;28;20033;-82
2023/12/11 11:30:45;;;;;;;16.50;3.50;;;13.10;99.90;;;;;;5036077;28;20368;-77
2023/12/11 11:33:11;;;;;;;15.70;3.10;;;14.90;99.90;;;;;;5033124;28;20044;-77
2023/12/11 11:35:50;;;;;;;19.98;3.63;;;13.70;99.90;;;;;;5017095;28;20048;-76
2023/12/11 11:38:18;;;;;;;24.38;4.05;;;12.80;99.90;;;;;;5022182;28;20052;-78
2023/12/11 11:40:44;;;;;;;17.38;3.63;;;14.40;99.90;;;;;;5032696;28;20052;-79
2023/12/11 11:43:13;;;;;;;17.73;3.75;;;14.60;99.90;;;;;;5033548;28;20052;-80
2023/12/11 11:45:39;;;;;;;15.65;3.92;;;14.40;99.90;;;;;;5003471;28;20032;-77
2023/12/11 11:48:05;;;;;;;9.82;2.30;;;14.80;99.90;;;;;;5019720;28;20041;-74
2023/12/11 11:50:31;;;;;;;15.43;3.22;;;12.60;99.90;;;;;;5018107;28;20052;-79
2023/12/11 11:53:12;;;;;;;12.75;2.70;;;12.70;99.90;;;;;;5037326;28;20044;-79
2023/12/11 11:55:38;;;;;;;11.02;2.38;;;12.40;99.90;;;;;;5030032;28;20440;-77
2023/12/11 11:58:12;;;;;;;14.88;2.83;;;14.50;99.90;;;;;;5025845;28;20440;-80
2023/12/11 12:00:38;;;;;;;15.38;3.03;;;14.70;99.90;;;;;;5037037;28;20437;-78
2023/12/11 12:03:04;;;;;;;14.85;2.72;;;14.00;99.90;;;;;;5021247;28;20068;-80
2023/12/11 12:05:31;;;;;;;11.88;2.33;;;12.50;99.90;;;;;;5020205;28;20069;-75
2023/12/11 12:07:57;;;;;;;12.18;2.00;;;12.60;99.90;;;;;;5007953;28;20036;-77
2023/12/11 12:10:23;;;;;;;12.70;2.40;;;13.10;99.90;;;;;;5038448;28;20036;-79
2023/12/11 12:12:56;;;;;;;11.85;2.92;;;12.70;99.90;;;;;;5020346;28;20033;-76
2023/12/11 12:15:22;;;;;;;10.07;2.58;;;12.20;99.90;;;;;;5020360;28;20393;-78
2023/12/11 12:17:48;;;;;;;9.15;2.33;;;14.60;99.90;;;;;;5036709;28;20040;-79
2023/12/11 12:20:17;;;;;;;8.15;2.42;;;13.00;99.90;;;;;;5051255;28;20033;-78
2023/12/11 12:22:58;;;;;;;10.00;2.42;;;13.00;99.90;;;;;;5019192;28;20057;-77
2023/12/11 12:25:25;;;;;;;12.23;2.40;;;12.80;99.90;;;;;;5036511;28;20434;-77
2023/12/11 12:27:52;;;;;;;9.98;1.83;;;12.30;99.90;;;;;;5021353;28;20040;-81
2023/12/11 12:30:19;;;;;;;9.60;2.10;;;12.50;99.90;;;;;;5045599;28;20043;-79
2023/12/11 12:32:48;;;;;;;15.30;3.15;;;12.60;99.90;;;;;;5003505;28;20040;-78
2023/12/11 12:35:16;;;;;;;9.02;2.40;;;14.00;99.90;;;;;;5039161;28;20379;-76